Terminal Aerodrome Forecast
Issued by NWS Detroit/Pontiac, MI

Home | Current Version | Previous Version | Text Only | Print | Product List | Glossary On
Versions: 1 2 3 4 5 6 7 8 9 10 11 12 13 14 15 16 17 18 19 20 21 22 23 24 25 26 27 28
778
FTUS43 KDTX 180915 AAB
TAFDTW
TAF AMD
KDTW 180915Z 1809/1912 26008KT P6SM OVC005
     FM181700 25008KT P6SM OVC008
     FM182000 22008KT P6SM OVC010
     FM190300 22007KT P6SM SCT025 BKN035=

USA.gov is the U.S. government's official web portal to all federal, state and local government web resources and services.